Terminal Aerodrome Forecast
Issued by NWS Albany, NY

Home | Current Version | Previous Version | Text Only | Print | Product List | Glossary On
Versions: 1 2 3 4 5 6 7 8 9 10 11 12 13 14 15 16 17 18 19
000
FTUS41 KALY 011700
TAFPOU
TAF
KPOU 011721Z 0118/0218 29004KT P6SM VCSH BKN035 OVC120
     FM020000 03003KT 4SM -SHSN BR OVC040
     FM020400 04005KT 1 1/2SM -SN BR BKN008 OVC015
     FM020800 02009KT 1/2SM SN FZFG VV004
     FM021500 03009KT 1SM -SNPL OVC010=

USA.gov is the U.S. government's official web portal to all federal, state and local government web resources and services.